Time;durP1;ratioP1;P1;durP2;ratioP2;P2;SDS_P1;SDS_P2;PMS_P1;PMS_P2;Temp;Humidity;BMP_temperature;BMP_pressure;BME280_temperature;BME280_humidity;BME280_pressure;Samples;Min_cycle;Max_cycle;Signal;HPM_P1;HPM_P2
2022/07/13 00:01:13;;;;;;;2.47;1.85;;;;;;;;;;10375473;28;20223;-78
2022/07/13 00:06:14;;;;;;;2.08;1.92;;;;;;;;;;10373952;28;20194;-77
2022/07/13 00:11:15;;;;;;;2.25;2.10;;;;;;;;;;10367244;28;20659;-77
2022/07/13 00:16:16;;;;;;;2.05;2.03;;;;;;;;;;10372851;28;20563;-77
2022/07/13 00:21:17;;;;;;;2.30;2.20;;;;;;;;;;10374820;28;20217;-77
2022/07/13 00:26:19;;;;;;;1.90;1.80;;;;;;;;;;10380775;28;20271;-77
2022/07/13 00:31:20;;;;;;;3.42;2.22;;;;;;;;;;10359324;28;20715;-77
2022/07/13 00:36:21;;;;;;;2.40;2.30;;;;;;;;;;10380931;28;20625;-77
2022/07/13 00:41:22;;;;;;;5.57;2.17;;;;;;;;;;10382578;28;20698;-77
2022/07/13 00:46:23;;;;;;;3.75;2.65;;;;;;;;;;10378265;28;20191;-76
2022/07/13 00:51:24;;;;;;;3.38;2.17;;;;;;;;;;10357686;28;20207;-76
2022/07/13 00:56:26;;;;;;;2.20;1.92;;;;;;;;;;10385668;28;20188;-76
2022/07/13 01:01:28;;;;;;;1.92;1.92;;;;;;;;;;10357654;28;20700;-77
2022/07/13 01:06:29;;;;;;;1.80;1.80;;;;;;;;;;10382214;28;20188;-76
2022/07/13 01:11:32;;;;;;;2.00;2.00;;;;;;;;;;10358244;28;20702;-76
2022/07/13 01:16:34;;;;;;;1.83;1.83;;;;;;;;;;10362907;28;20195;-75
2022/07/13 01:21:36;;;;;;;1.67;1.58;;;;;;;;;;10365229;28;20239;-77
2022/07/13 01:26:38;;;;;;;1.83;1.83;;;;;;;;;;10383086;28;20232;-76
2022/07/13 01:31:40;;;;;;;2.10;2.00;;;;;;;;;;10382842;28;20215;-76
2022/07/13 01:36:41;;;;;;;2.22;2.13;;;;;;;;;;10389710;28;20206;-76
2022/07/13 01:41:42;;;;;;;2.25;2.22;;;;;;;;;;10419910;28;20231;-75
2022/07/13 01:46:46;;;;;;;2.33;2.13;;;;;;;;;;10428858;28;20183;-76
2022/07/13 01:51:47;;;;;;;1.80;1.70;;;;;;;;;;10399014;28;20226;-76
2022/07/13 01:56:49;;;;;;;1.52;1.52;;;;;;;;;;10405157;28;20201;-76
2022/07/13 02:01:50;;;;;;;2.10;2.00;;;;;;;;;;10417955;28;20689;-76
2022/07/13 02:06:51;;;;;;;2.70;1.60;;;;;;;;;;10419404;28;20191;-75
2022/07/13 02:11:55;;;;;;;1.60;1.60;;;;;;;;;;10416385;28;20219;-77
2022/07/13 02:16:56;;;;;;;2.20;1.55;;;;;;;;;;10398609;28;20183;-76
2022/07/13 02:21:57;;;;;;;1.75;1.75;;;;;;;;;;10420720;28;20199;-76
2022/07/13 02:26:58;;;;;;;2.00;1.90;;;;;;;;;;10424527;28;20191;-77
2022/07/13 02:32:00;;;;;;;1.60;1.60;;;;;;;;;;10405801;28;20583;-77
2022/07/13 02:37:04;;;;;;;1.42;1.42;;;;;;;;;;10411777;28;20187;-77
2022/07/13 02:42:05;;;;;;;2.05;1.50;;;;;;;;;;10410333;28;20191;-77
2022/07/13 02:47:06;;;;;;;1.63;1.42;;;;;;;;;;10411101;28;20195;-77
2022/07/13 02:52:07;;;;;;;1.35;1.35;;;;;;;;;;10409588;28;20210;-77
2022/07/13 02:57:08;;;;;;;1.20;1.20;;;;;;;;;;10391175;28;20187;-76
2022/07/13 03:02:10;;;;;;;1.70;1.70;;;;;;;;;;10410717;28;20219;-76
2022/07/13 03:07:12;;;;;;;1.38;1.20;;;;;;;;;;10417717;28;20198;-77
2022/07/13 03:12:14;;;;;;;1.50;1.50;;;;;;;;;;10410934;28;20215;-77
2022/07/13 03:17:15;;;;;;;2.28;1.17;;;;;;;;;;10403022;28;20622;-77
2022/07/13 03:22:16;;;;;;;2.60;1.17;;;;;;;;;;10416016;28;20316;-77
2022/07/13 03:27:18;;;;;;;1.33;1.33;;;;;;;;;;10401936;28;21031;-77
2022/07/13 03:32:19;;;;;;;1.27;1.27;;;;;;;;;;10414337;28;20231;-76
2022/07/13 03:37:21;;;;;;;1.42;1.42;;;;;;;;;;10405375;28;20184;-77
2022/07/13 03:42:23;;;;;;;1.40;1.40;;;;;;;;;;10415066;28;20202;-76
2022/07/13 03:47:25;;;;;;;1.50;0.95;;;;;;;;;;10397061;28;20203;-77
2022/07/13 03:52:26;;;;;;;4.68;1.27;;;;;;;;;;10415476;28;20203;-77
2022/07/13 03:57:27;;;;;;;1.45;1.35;;;;;;;;;;10397498;28;20184;-77
2022/07/13 04:02:28;;;;;;;1.58;1.13;;;;;;;;;;10405698;28;20743;-77
2022/07/13 04:07:30;;;;;;;1.40;1.30;;;;;;;;;;10407702;28;20240;-77
2022/07/13 04:12:31;;;;;;;2.70;1.00;;;;;;;;;;10398231;28;21224;-76
2022/07/13 04:17:33;;;;;;;1.05;1.05;;;;;;;;;;10416505;28;20305;-77
2022/07/13 04:22:35;;;;;;;1.85;1.05;;;;;;;;;;10418691;28;20818;-77
2022/07/13 04:27:36;;;;;;;1.15;1.00;;;;;;;;;;10417885;28;20191;-77
2022/07/13 04:32:37;;;;;;;2.17;1.23;;;;;;;;;;10420682;28;20735;-77
2022/07/13 04:37:38;;;;;;;1.60;1.08;;;;;;;;;;10397067;28;20198;-76
2022/07/13 04:42:39;;;;;;;1.08;1.00;;;;;;;;;;10430615;28;20185;-76
2022/07/13 04:47:41;;;;;;;0.90;0.90;;;;;;;;;;10411702;28;20213;-76
2022/07/13 04:52:43;;;;;;;1.23;1.23;;;;;;;;;;10415554;28;20245;-77
2022/07/13 04:57:44;;;;;;;1.10;1.08;;;;;;;;;;10412343;28;20566;-77
2022/07/13 05:02:47;;;;;;;1.30;1.20;;;;;;;;;;10428751;28;20249;-76
2022/07/13 05:07:48;;;;;;;2.35;1.23;;;;;;;;;;10434086;28;20227;-76
2022/07/13 05:12:50;;;;;;;1.73;1.30;;;;;;;;;;10425310;28;20238;-75
2022/07/13 05:17:52;;;;;;;2.28;1.25;;;;;;;;;;10402959;28;20315;-76
2022/07/13 05:22:55;;;;;;;2.92;1.08;;;;;;;;;;10415479;28;20184;-76
2022/07/13 05:27:59;;;;;;;1.80;1.23;;;;;;;;;;10403544;28;20198;-76
2022/07/13 05:33:01;;;;;;;1.40;1.40;;;;;;;;;;10410248;28;20854;-76
2022/07/13 05:38:02;;;;;;;0.98;0.98;;;;;;;;;;10408522;28;20253;-76
2022/07/13 05:43:06;;;;;;;1.38;1.25;;;;;;;;;;10405552;28;20187;-77
2022/07/13 05:48:08;;;;;;;1.38;0.80;;;;;;;;;;10391141;28;20238;-78
2022/07/13 05:53:09;;;;;;;1.30;0.90;;;;;;;;;;10400986;28;20250;-76
2022/07/13 05:58:10;;;;;;;0.88;0.88;;;;;;;;;;10404131;28;20190;-77
2022/07/13 06:03:11;;;;;;;2.92;0.80;;;;;;;;;;10421666;28;20229;-77
2022/07/13 06:08:12;;;;;;;5.57;0.90;;;;;;;;;;10422944;28;20325;-76
2022/07/13 06:13:13;;;;;;;1.05;0.75;;;;;;;;;;10428624;28;20591;-77
2022/07/13 06:18:14;;;;;;;1.77;1.00;;;;;;;;;;10422942;28;20617;-76
2022/07/13 06:23:16;;;;;;;0.75;0.75;;;;;;;;;;10415842;28;20651;-77
2022/07/13 06:28:17;;;;;;;2.47;0.85;;;;;;;;;;10419568;28;20698;-77
2022/07/13 06:33:18;;;;;;;0.93;0.75;;;;;;;;;;10416735;28;20714;-76
2022/07/13 06:38:19;;;;;;;1.30;0.90;;;;;;;;;;10416440;28;20737;-75
2022/07/13 06:43:20;;;;;;;0.80;0.70;;;;;;;;;;10419276;28;20210;-76
2022/07/13 06:48:22;;;;;;;4.13;0.60;;;;;;;;;;10413632;28;20203;-76
2022/07/13 06:53:23;;;;;;;2.10;0.60;;;;;;;;;;10400131;28;20223;-76
2022/07/13 06:58:24;;;;;;;2.05;0.65;;;;;;;;;;10420001;28;20267;-76
2022/07/13 07:03:25;;;;;;;2.80;0.80;;;;;;;;;;10410291;28;20229;-75
2022/07/13 07:08:26;;;;;;;4.53;0.80;;;;;;;;;;10413769;28;20219;-76
2022/07/13 07:13:27;;;;;;;5.50;0.90;;;;;;;;;;10415062;28;20254;-76
2022/07/13 07:18:28;;;;;;;2.42;0.60;;;;;;;;;;10419297;28;20287;-75
2022/07/13 07:23:29;;;;;;;1.38;0.50;;;;;;;;;;10413754;28;20206;-75
2022/07/13 07:28:31;;;;;;;0.40;0.40;;;;;;;;;;10410224;28;20198;-75
2022/07/13 07:33:32;;;;;;;2.33;0.40;;;;;;;;;;10413265;28;20211;-76
2022/07/13 07:38:33;;;;;;;3.83;0.57;;;;;;;;;;10412947;28;20265;-76
2022/07/13 07:43:34;;;;;;;1.98;0.40;;;;;;;;;;10416651;28;20187;-75
2022/07/13 07:48:35;;;;;;;0.40;0.40;;;;;;;;;;10413474;28;20227;-74
2022/07/13 07:53:36;;;;;;;0.50;0.50;;;;;;;;;;10412993;28;20261;-75
2022/07/13 07:58:38;;;;;;;1.75;0.50;;;;;;;;;;10414951;28;20193;-74
2022/07/13 08:03:40;;;;;;;0.95;0.40;;;;;;;;;;10413965;28;20222;-72
2022/07/13 08:08:41;;;;;;;1.35;0.68;;;;;;;;;;10404973;28;20368;-73
2022/07/13 08:13:42;;;;;;;3.50;0.57;;;;;;;;;;10413274;28;20219;-73
2022/07/13 08:18:44;;;;;;;0.47;0.47;;;;;;;;;;10405458;28;20206;-74
2022/07/13 08:23:51;;;;;;;0.95;0.60;;;;;;;;;;10409431;28;20191;-73
2022/07/13 08:28:52;;;;;;;2.53;0.50;;;;;;;;;;10411609;28;20678;-73
2022/07/13 08:39:14;;;;;;;6.20;1.00;;;;;;;;;;10404158;28;20186;-74
2022/07/13 08:44:15;;;;;;;1.90;0.60;;;;;;;;;;10407958;28;20195;-73
2022/07/13 08:49:16;;;;;;;0.75;0.60;;;;;;;;;;10410222;28;20705;-72
2022/07/13 08:54:17;;;;;;;0.65;0.65;;;;;;;;;;10411333;28;20662;-73
2022/07/13 08:59:18;;;;;;;4.80;0.60;;;;;;;;;;10426096;28;20183;-73
2022/07/13 09:04:20;;;;;;;1.75;0.70;;;;;;;;;;10398542;28;20215;-74
2022/07/13 09:09:35;;;;;;;0.60;0.60;;;;;;;;;;10403747;28;20249;-74
2022/07/13 09:14:36;;;;;;;3.83;0.60;;;;;;;;;;10420821;28;20211;-74
2022/07/13 09:19:39;;;;;;;2.38;0.70;;;;;;;;;;10415572;28;20207;-74
2022/07/13 09:24:47;;;;;;;0.55;0.55;;;;;;;;;;10413791;28;20211;-74
2022/07/13 09:29:49;;;;;;;1.65;0.40;;;;;;;;;;10417879;28;20218;-72
2022/07/13 09:34:58;;;;;;;0.43;0.43;;;;;;;;;;10417729;28;20758;-74
2022/07/13 09:40:06;;;;;;;1.88;0.50;;;;;;;;;;10403157;28;20184;-73
2022/07/13 09:50:38;;;;;;;0.40;0.40;;;;;;;;;;10413024;28;20207;-74
2022/07/13 09:55:43;;;;;;;0.88;0.47;;;;;;;;;;10414156;28;20242;-73
2022/07/13 10:00:44;;;;;;;1.95;0.40;;;;;;;;;;10412090;28;20273;-72
2022/07/13 10:05:45;;;;;;;0.40;0.40;;;;;;;;;;10410384;28;20670;-72
2022/07/13 10:10:47;;;;;;;3.80;0.40;;;;;;;;;;10413934;28;20706;-73
2022/07/13 10:15:48;;;;;;;0.22;0.22;;;;;;;;;;10395868;28;20585;-71
2022/07/13 10:20:53;;;;;;;0.30;0.30;;;;;;;;;;10410619;28;20210;-72
2022/07/13 10:25:54;;;;;;;0.82;0.35;;;;;;;;;;10411605;28;20723;-72
2022/07/13 10:30:55;;;;;;;1.38;0.40;;;;;;;;;;10410891;28;20689;-75
2022/07/13 10:35:58;;;;;;;0.35;0.35;;;;;;;;;;10412968;28;20210;-73
2022/07/13 10:41:19;;;;;;;1.08;0.30;;;;;;;;;;10415747;28;20585;-73
2022/07/13 10:46:39;;;;;;;2.92;0.50;;;;;;;;;;10389945;28;20186;-72
2022/07/13 10:51:41;;;;;;;1.17;0.50;;;;;;;;;;10412627;28;20226;-73
2022/07/13 10:57:01;;;;;;;0.40;0.40;;;;;;;;;;10408891;28;20196;-71
2022/07/13 11:02:03;;;;;;;0.50;0.50;;;;;;;;;;10411858;28;20309;-72
2022/07/13 11:07:05;;;;;;;0.50;0.50;;;;;;;;;;10414519;28;20679;-72
2022/07/13 11:12:21;;;;;;;0.88;0.50;;;;;;;;;;10411538;28;20223;-71
2022/07/13 11:17:23;;;;;;;1.15;0.60;;;;;;;;;;10410541;28;20203;-72
2022/07/13 11:22:25;;;;;;;0.50;0.50;;;;;;;;;;10413007;28;20187;-72
2022/07/13 11:27:33;;;;;;;1.35;0.57;;;;;;;;;;10406157;28;20199;-71
2022/07/13 11:32:34;;;;;;;0.68;0.68;;;;;;;;;;10411519;28;20227;-73
2022/07/13 11:37:36;;;;;;;1.35;0.77;;;;;;;;;;10413775;28;20673;-72
2022/07/13 11:42:37;;;;;;;1.75;1.00;;;;;;;;;;10391860;28;20191;-73
2022/07/13 11:47:38;;;;;;;0.77;0.77;;;;;;;;;;10413764;28;20218;-73
2022/07/13 11:52:39;;;;;;;2.28;0.63;;;;;;;;;;10414889;28;20231;-73
2022/07/13 11:57:45;;;;;;;2.58;0.80;;;;;;;;;;10412257;28;20524;-72
2022/07/13 12:02:50;;;;;;;1.08;0.60;;;;;;;;;;10407689;28;20225;-73
2022/07/13 12:08:04;;;;;;;0.68;0.68;;;;;;;;;;10412711;28;20640;-71
2022/07/13 12:13:05;;;;;;;3.50;0.60;;;;;;;;;;10413552;28;20583;-72
2022/07/13 12:18:09;;;;;;;1.50;0.60;;;;;;;;;;10406560;28;20222;-73
2022/07/13 12:23:10;;;;;;;1.05;0.63;;;;;;;;;;10408205;28;20257;-71
2022/07/13 12:28:11;;;;;;;1.75;0.60;;;;;;;;;;10414184;28;20233;-73
2022/07/13 12:33:12;;;;;;;0.80;0.63;;;;;;;;;;10403643;28;20235;-72
2022/07/13 12:38:15;;;;;;;3.20;0.80;;;;;;;;;;10415658;28;20714;-70
2022/07/13 12:43:24;;;;;;;0.55;0.55;;;;;;;;;;10415543;28;24446;-71
2022/07/13 12:48:29;;;;;;;0.60;0.60;;;;;;;;;;10423035;28;20219;-70
2022/07/13 12:53:49;;;;;;;0.80;0.70;;;;;;;;;;10402501;28;20219;-72
2022/07/13 12:58:58;;;;;;;0.43;0.43;;;;;;;;;;10402446;28;20188;-72
2022/07/13 13:04:00;;;;;;;2.08;0.50;;;;;;;;;;10414292;28;20221;-72
2022/07/13 13:09:05;;;;;;;4.88;0.60;;;;;;;;;;10416766;28;20246;-69
2022/07/13 13:14:06;;;;;;;0.85;0.70;;;;;;;;;;10415200;28;20246;-71
2022/07/13 13:19:08;;;;;;;2.60;0.60;;;;;;;;;;10417449;28;20245;-71
2022/07/13 13:24:09;;;;;;;2.95;0.63;;;;;;;;;;10402035;28;20196;-71
2022/07/13 13:34:31;;;;;;;0.93;0.70;;;;;;;;;;10411046;28;20265;-71
2022/07/13 13:39:32;;;;;;;0.80;0.80;;;;;;;;;;10414255;28;20685;-69
2022/07/13 13:44:33;;;;;;;1.75;0.60;;;;;;;;;;10421492;28;20191;-69
2022/07/13 13:49:35;;;;;;;2.83;0.60;;;;;;;;;;10415595;28;20211;-71
2022/07/13 13:54:36;;;;;;;1.55;0.70;;;;;;;;;;10418681;28;20226;-71
2022/07/13 13:59:37;;;;;;;1.33;0.80;;;;;;;;;;10414926;28;20570;-72
2022/07/13 14:04:38;;;;;;;0.95;0.60;;;;;;;;;;10415889;28;20222;-71
2022/07/13 14:09:39;;;;;;;2.10;0.80;;;;;;;;;;10395966;28;20589;-70
2022/07/13 14:14:40;;;;;;;1.08;0.77;;;;;;;;;;10419422;28;20221;-71
2022/07/13 14:19:46;;;;;;;2.80;0.70;;;;;;;;;;10413346;28;20230;-71
2022/07/13 14:24:48;;;;;;;1.40;0.60;;;;;;;;;;10413890;28;20205;-69
2022/07/13 14:29:49;;;;;;;2.95;0.70;;;;;;;;;;10415228;28;20186;-71
2022/07/13 14:34:50;;;;;;;2.25;0.70;;;;;;;;;;10410412;28;20224;-72
2022/07/13 14:39:52;;;;;;;2.38;0.60;;;;;;;;;;10417388;28;20218;-69
2022/07/13 14:44:54;;;;;;;3.00;0.50;;;;;;;;;;10422731;28;20235;-71
2022/07/13 14:49:55;;;;;;;0.60;0.60;;;;;;;;;;10410518;28;20252;-71
2022/07/13 14:54:58;;;;;;;1.23;0.50;;;;;;;;;;10407712;28;20225;-69
2022/07/13 14:59:59;;;;;;;0.73;0.70;;;;;;;;;;10422140;28;20939;-71
2022/07/13 15:05:04;;;;;;;0.73;0.63;;;;;;;;;;10419569;28;20214;-71
2022/07/13 15:10:05;;;;;;;0.70;0.70;;;;;;;;;;10421295;28;20239;-71
2022/07/13 15:15:07;;;;;;;0.63;0.50;;;;;;;;;;10420471;28;20288;-71
2022/07/13 15:20:08;;;;;;;2.95;0.77;;;;;;;;;;10413836;28;20238;-71
2022/07/13 15:25:11;;;;;;;2.63;0.55;;;;;;;;;;10408491;28;20683;-74
2022/07/13 15:30:12;;;;;;;1.23;0.90;;;;;;;;;;10418339;28;20678;-71
2022/07/13 15:35:13;;;;;;;1.85;0.68;;;;;;;;;;10417834;28;20214;-74
2022/07/13 15:40:14;;;;;;;4.35;0.70;;;;;;;;;;10423124;28;20594;-73
2022/07/13 15:45:15;;;;;;;0.52;0.52;;;;;;;;;;10410989;28;20223;-72
2022/07/13 15:50:16;;;;;;;2.40;0.70;;;;;;;;;;10409722;28;20228;-73
2022/07/13 15:55:18;;;;;;;3.33;0.85;;;;;;;;;;10409118;28;20229;-71
2022/07/13 16:00:20;;;;;;;0.90;0.90;;;;;;;;;;10415797;28;20624;-72
2022/07/13 16:05:22;;;;;;;3.63;1.00;;;;;;;;;;10427410;28;20199;-71
2022/07/13 16:10:23;;;;;;;3.20;0.65;;;;;;;;;;10420170;28;20219;-72
2022/07/13 16:15:24;;;;;;;0.90;0.90;;;;;;;;;;10423599;28;20260;-72
2022/07/13 16:20:25;;;;;;;3.20;0.95;;;;;;;;;;10404982;28;20207;-74
2022/07/13 16:25:26;;;;;;;1.75;0.90;;;;;;;;;;10419344;28;20293;-68
2022/07/13 16:30:27;;;;;;;2.88;0.90;;;;;;;;;;10415686;28;20180;-69
2022/07/13 16:35:28;;;;;;;2.60;0.90;;;;;;;;;;10400223;28;20234;-69
2022/07/13 16:40:29;;;;;;;1.48;0.90;;;;;;;;;;10431362;28;20190;-72
2022/07/13 16:45:30;;;;;;;1.33;1.10;;;;;;;;;;10423782;28;20282;-72
2022/07/13 16:50:32;;;;;;;4.05;1.17;;;;;;;;;;10405371;28;20230;-73
2022/07/13 16:55:34;;;;;;;2.80;0.70;;;;;;;;;;10422297;28;21332;-72
2022/07/13 17:00:35;;;;;;;5.03;0.90;;;;;;;;;;10429329;28;20214;-77
2022/07/13 17:05:36;;;;;;;4.13;1.20;;;;;;;;;;10425890;28;20664;-73
2022/07/13 17:10:38;;;;;;;1.98;0.98;;;;;;;;;;10429775;28;20313;-71
2022/07/13 17:15:39;;;;;;;4.07;1.02;;;;;;;;;;10423102;28;20257;-70
2022/07/13 17:20:40;;;;;;;1.30;0.93;;;;;;;;;;10424636;28;20225;-69
2022/07/13 17:25:42;;;;;;;1.95;0.85;;;;;;;;;;10425457;28;20236;-69
2022/07/13 17:30:44;;;;;;;1.13;0.70;;;;;;;;;;10426898;28;20234;-69
2022/07/13 17:35:45;;;;;;;1.67;1.15;;;;;;;;;;10423447;28;20215;-74
2022/07/13 17:40:46;;;;;;;6.15;1.02;;;;;;;;;;10411441;28;20284;-73
2022/07/13 17:45:47;;;;;;;4.88;1.02;;;;;;;;;;10431501;28;20206;-74
2022/07/13 17:50:48;;;;;;;1.10;0.90;;;;;;;;;;10413956;28;20214;-76
2022/07/13 17:55:49;;;;;;;1.85;0.85;;;;;;;;;;10433179;28;20211;-74
2022/07/13 18:00:51;;;;;;;1.80;0.90;;;;;;;;;;10438829;28;20225;-75
2022/07/13 18:05:52;;;;;;;2.15;0.93;;;;;;;;;;10429294;28;20249;-75
2022/07/13 18:10:53;;;;;;;1.00;0.73;;;;;;;;;;10431655;28;20219;-72
2022/07/13 18:15:54;;;;;;;0.80;0.80;;;;;;;;;;10429912;28;20231;-71
2022/07/13 18:20:55;;;;;;;2.30;0.93;;;;;;;;;;10425968;28;20260;-71
2022/07/13 18:25:56;;;;;;;9.48;1.33;;;;;;;;;;10426473;28;20249;-75
2022/07/13 18:30:57;;;;;;;2.50;1.38;;;;;;;;;;10423052;28;20636;-73
2022/07/13 18:35:59;;;;;;;2.58;1.92;;;;;;;;;;10421354;28;20221;-71
2022/07/13 18:41:00;;;;;;;3.75;2.00;;;;;;;;;;10419399;28;20216;-75
2022/07/13 18:46:01;;;;;;;2.25;1.65;;;;;;;;;;10425958;28;20734;-74
2022/07/13 18:51:02;;;;;;;1.95;1.85;;;;;;;;;;10424901;28;20297;-74
2022/07/13 18:56:03;;;;;;;2.78;1.83;;;;;;;;;;10427267;28;20219;-74
2022/07/13 19:01:04;;;;;;;4.57;2.00;;;;;;;;;;10418571;28;20218;-74
2022/07/13 19:06:07;;;;;;;2.00;1.83;;;;;;;;;;10424451;28;20252;-75
2022/07/13 19:11:08;;;;;;;2.03;1.80;;;;;;;;;;10425884;28;20827;-74
2022/07/13 19:16:10;;;;;;;2.70;1.85;;;;;;;;;;10426130;28;20334;-74
2022/07/13 19:21:11;;;;;;;1.80;1.70;;;;;;;;;;10429796;28;20203;-75
2022/07/13 19:31:32;;;;;;;1.98;1.88;;;;;;;;;;10426380;28;20734;-75
2022/07/13 19:36:33;;;;;;;3.22;2.00;;;;;;;;;;10411116;28;20202;-76
2022/07/13 19:41:34;;;;;;;1.98;1.70;;;;;;;;;;10426808;28;20679;-75
2022/07/13 19:46:35;;;;;;;3.60;2.20;;;;;;;;;;10427713;28;20281;-75
2022/07/13 19:51:37;;;;;;;1.85;1.75;;;;;;;;;;10423435;28;20309;-76
2022/07/13 19:56:40;;;;;;;2.00;1.90;;;;;;;;;;10423820;28;20190;-76
2022/07/13 20:01:41;;;;;;;2.85;2.20;;;;;;;;;;10427857;28;20226;-74
2022/07/13 20:06:42;;;;;;;2.55;1.95;;;;;;;;;;10424845;28;20194;-75
2022/07/13 20:11:44;;;;;;;1.98;1.80;;;;;;;;;;10424020;28;20234;-75
2022/07/13 20:16:45;;;;;;;1.85;1.70;;;;;;;;;;10419998;28;20194;-75
2022/07/13 20:21:47;;;;;;;1.80;1.80;;;;;;;;;;10419727;28;20227;-75
2022/07/13 20:26:48;;;;;;;1.60;1.50;;;;;;;;;;10414766;28;20274;-74
2022/07/13 20:31:49;;;;;;;1.95;1.58;;;;;;;;;;10401486;28;20317;-75
2022/07/13 20:36:50;;;;;;;1.55;1.50;;;;;;;;;;10422858;28;20202;-75
2022/07/13 20:41:51;;;;;;;2.50;1.45;;;;;;;;;;10420795;28;20194;-76
2022/07/13 20:46:52;;;;;;;3.03;1.60;;;;;;;;;;10419723;28;20191;-75
2022/07/13 20:51:53;;;;;;;1.30;1.30;;;;;;;;;;10409004;28;20730;-75
2022/07/13 20:56:54;;;;;;;1.60;1.50;;;;;;;;;;10427449;28;20282;-76
2022/07/13 21:01:55;;;;;;;2.40;1.25;;;;;;;;;;10424620;28;20214;-75
2022/07/13 21:06:56;;;;;;;1.00;1.00;;;;;;;;;;10406230;28;20191;-74
2022/07/13 21:11:58;;;;;;;1.35;0.90;;;;;;;;;;10429743;28;20694;-74
2022/07/13 21:16:59;;;;;;;0.80;0.80;;;;;;;;;;10427982;28;20183;-74
2022/07/13 21:22:01;;;;;;;2.15;1.27;;;;;;;;;;10419741;28;20219;-75
2022/07/13 21:27:02;;;;;;;1.33;1.00;;;;;;;;;;10411665;28;20197;-76
2022/07/13 21:32:03;;;;;;;0.98;0.98;;;;;;;;;;10428376;28;20223;-76
2022/07/13 21:37:04;;;;;;;3.00;1.52;;;;;;;;;;10427595;28;20283;-76
2022/07/13 21:42:05;;;;;;;2.42;1.00;;;;;;;;;;10427058;28;20187;-76
2022/07/13 21:47:06;;;;;;;2.70;0.85;;;;;;;;;;10427478;28;20227;-74
2022/07/13 21:52:07;;;;;;;1.25;1.10;;;;;;;;;;10422846;28;20258;-76
2022/07/13 21:57:08;;;;;;;1.15;1.05;;;;;;;;;;10423741;28;20187;-76
2022/07/13 22:02:09;;;;;;;1.60;1.20;;;;;;;;;;10421480;28;20299;-75
2022/07/13 22:07:23;;;;;;;3.58;1.20;;;;;;;;;;10412225;28;20245;-76
2022/07/13 22:12:43;;;;;;;2.05;1.00;;;;;;;;;;10435083;28;20253;-77
2022/07/13 22:18:03;;;;;;;1.40;1.08;;;;;;;;;;10429518;28;20215;-75
2022/07/13 22:23:22;;;;;;;1.50;1.10;;;;;;;;;;10424679;28;20682;-77
2022/07/13 22:28:42;;;;;;;1.90;1.00;;;;;;;;;;10430329;28;20198;-75
2022/07/13 22:34:02;;;;;;;1.10;1.10;;;;;;;;;;10418958;28;20660;-76
2022/07/13 22:39:22;;;;;;;2.17;1.40;;;;;;;;;;10425853;28;20682;-77
2022/07/13 22:44:41;;;;;;;2.95;1.00;;;;;;;;;;10430321;28;20717;-77
2022/07/13 22:50:02;;;;;;;1.10;1.10;;;;;;;;;;10430790;28;20202;-77
2022/07/13 22:55:21;;;;;;;1.73;1.27;;;;;;;;;;10426785;28;21078;-76
2022/07/13 23:00:41;;;;;;;7.22;1.50;;;;;;;;;;10418552;28;20190;-76
2022/07/13 23:06:01;;;;;;;3.90;1.25;;;;;;;;;;10420766;28;20187;-76
2022/07/13 23:11:21;;;;;;;1.77;1.42;;;;;;;;;;10418709;28;20222;-76
2022/07/13 23:16:40;;;;;;;1.33;1.20;;;;;;;;;;10419807;28;20203;-77
2022/07/13 23:22:00;;;;;;;1.40;1.40;;;;;;;;;;10424643;28;20709;-77
2022/07/13 23:27:20;;;;;;;3.25;1.50;;;;;;;;;;10422483;28;20187;-76
2022/07/13 23:32:36;;;;;;;2.78;1.70;;;;;;;;;;10425675;28;20280;-76
2022/07/13 23:37:37;;;;;;;2.47;1.60;;;;;;;;;;10428076;28;20191;-76
2022/07/13 23:42:38;;;;;;;2.03;1.70;;;;;;;;;;10427802;28;20200;-76
2022/07/13 23:47:39;;;;;;;2.55;1.33;;;;;;;;;;10422803;28;20717;-75
2022/07/13 23:52:40;;;;;;;3.80;1.35;;;;;;;;;;10423617;28;20215;-75
2022/07/13 23:57:43;;;;;;;1.65;1.55;;;;;;;;;;10417344;28;20237;-75
